Time;durP1;ratioP1;P1;durP2;ratioP2;P2;SDS_P1;SDS_P2;PMS_P1;PMS_P2;Temp;Humidity;BMP_temperature;BMP_pressure;BME280_temperature;BME280_humidity;BME280_pressure;Samples;Min_cycle;Max_cycle;Signal;HPM_P1;HPM_P2
2022/09/27 00:00:41;;;;;;;1.83;1.60;;;12.10;99.90;;;;;;5005870;28;20190;-76
2022/09/27 00:03:08;;;;;;;6.10;3.50;;;12.10;99.90;;;;;;5003953;28;20221;-75
2022/09/27 00:05:33;;;;;;;2.43;1.60;;;12.10;99.90;;;;;;4996770;28;20440;-75
2022/09/27 00:07:59;;;;;;;3.13;2.00;;;12.10;99.90;;;;;;4995417;28;20440;-77
2022/09/27 00:10:24;;;;;;;2.13;1.80;;;12.10;99.90;;;;;;4995998;28;20783;-78
2022/09/27 00:12:51;;;;;;;2.03;1.63;;;12.10;99.90;;;;;;4993085;28;20245;-77
2022/09/27 00:15:17;;;;;;;2.30;2.10;;;12.20;99.90;;;;;;4996467;28;20181;-78
2022/09/27 00:17:43;;;;;;;3.57;2.20;;;12.30;99.90;;;;;;4995527;28;20433;-78
2022/09/27 00:20:09;;;;;;;2.87;2.00;;;12.40;99.90;;;;;;4998282;28;20424;-77
2022/09/27 00:22:36;;;;;;;2.63;1.80;;;12.30;99.90;;;;;;5000245;28;20685;-75
2022/09/27 00:25:04;;;;;;;2.73;2.03;;;12.30;99.90;;;;;;5001441;28;20483;-77
2022/09/27 00:27:33;;;;;;;3.23;1.90;;;12.30;99.90;;;;;;4995982;28;20513;-75
2022/09/27 00:29:59;;;;;;;3.60;1.90;;;12.40;99.90;;;;;;4999286;28;20416;-76
2022/09/27 00:32:24;;;;;;;2.77;1.97;;;12.30;99.90;;;;;;4994049;28;20518;-76
2022/09/27 00:34:50;;;;;;;2.47;2.03;;;12.20;99.90;;;;;;4997150;28;20211;-76
2022/09/27 00:37:15;;;;;;;2.30;1.80;;;12.10;99.90;;;;;;4994359;28;20265;-76
2022/09/27 00:39:41;;;;;;;2.50;1.70;;;12.10;99.90;;;;;;4990366;28;20197;-76
2022/09/27 00:42:11;;;;;;;3.10;2.13;;;12.10;99.90;;;;;;5001413;28;20209;-78
2022/09/27 00:44:40;;;;;;;5.40;2.00;;;12.10;99.90;;;;;;5000631;28;20269;-77
2022/09/27 00:47:23;;;;;;;3.30;2.00;;;12.20;99.90;;;;;;4997017;28;20477;-77
2022/09/27 00:50:09;;;;;;;2.77;1.93;;;12.30;99.90;;;;;;4992151;28;20877;-76
2022/09/27 00:52:44;;;;;;;3.10;2.07;;;12.40;99.90;;;;;;4992360;28;20471;-77
2022/09/27 00:55:16;;;;;;;2.87;2.17;;;12.40;99.90;;;;;;4990597;28;20527;-77
2022/09/27 00:57:43;;;;;;;2.30;2.07;;;12.40;99.90;;;;;;4992438;28;20436;-75
2022/09/27 01:00:11;;;;;;;2.30;1.90;;;12.30;99.90;;;;;;4997363;28;20456;-77
2022/09/27 01:02:40;;;;;;;2.30;1.80;;;12.40;99.90;;;;;;4998306;28;20529;-76
2022/09/27 01:05:08;;;;;;;2.10;1.90;;;12.40;99.90;;;;;;4994775;28;20515;-76
2022/09/27 01:07:34;;;;;;;2.87;2.27;;;12.50;99.90;;;;;;4995468;28;20469;-76
2022/09/27 01:10:00;;;;;;;3.23;1.90;;;12.50;99.90;;;;;;4999946;28;20465;-77
2022/09/27 01:12:51;;;;;;;3.00;2.20;;;12.50;99.90;;;;;;4987912;28;20216;-76
2022/09/27 01:15:38;;;;;;;3.60;2.10;;;12.60;99.90;;;;;;4996687;28;20511;-77
2022/09/27 01:18:18;;;;;;;3.23;2.23;;;12.60;99.90;;;;;;4995542;28;20452;-77
2022/09/27 01:21:02;;;;;;;3.47;2.00;;;12.50;99.90;;;;;;4998540;28;20666;-76
2022/09/27 01:23:49;;;;;;;2.50;2.00;;;12.30;99.90;;;;;;4997084;28;20484;-76
2022/09/27 01:26:19;;;;;;;2.10;1.73;;;12.20;99.90;;;;;;4994548;28;20808;-76
2022/09/27 01:29:04;;;;;;;3.17;2.10;;;12.30;99.90;;;;;;4996161;28;20521;-77
2022/09/27 01:31:58;;;;;;;2.43;1.40;;;12.30;99.90;;;;;;5002040;28;20460;-76
2022/09/27 01:34:24;;;;;;;2.60;1.97;;;12.30;99.90;;;;;;4991640;28;20480;-77
2022/09/27 01:36:56;;;;;;;2.13;1.57;;;12.30;99.90;;;;;;5000104;28;21283;-76
2022/09/27 01:39:42;;;;;;;1.90;1.40;;;12.20;99.90;;;;;;4996556;28;20255;-75
2022/09/27 01:42:16;;;;;;;2.20;1.57;;;12.30;99.90;;;;;;4997673;28;20547;-77
2022/09/27 01:44:52;;;;;;;2.47;1.60;;;12.20;99.90;;;;;;4993359;28;20440;-77
2022/09/27 01:47:21;;;;;;;4.43;1.50;;;12.30;99.90;;;;;;4995178;28;20428;-77
2022/09/27 01:49:56;;;;;;;6.90;2.17;;;12.30;99.90;;;;;;4994763;28;20475;-77
2022/09/27 01:52:32;;;;;;;3.03;2.03;;;12.30;99.90;;;;;;4998217;28;20590;-77
2022/09/27 01:55:01;;;;;;;3.13;1.77;;;12.30;99.90;;;;;;4990476;28;20432;-76
2022/09/27 01:57:34;;;;;;;2.00;1.60;;;12.30;99.90;;;;;;4992809;28;20811;-75
2022/09/27 02:00:05;;;;;;;4.77;2.17;;;12.30;99.90;;;;;;4993522;28;20506;-76
2022/09/27 02:02:37;;;;;;;6.73;1.77;;;12.20;99.90;;;;;;4994893;28;20488;-76
2022/09/27 02:05:06;;;;;;;3.30;1.97;;;12.20;99.90;;;;;;4994735;28;20554;-74
2022/09/27 02:07:41;;;;;;;3.70;2.00;;;12.30;99.90;;;;;;5003638;28;20420;-77
2022/09/27 02:10:17;;;;;;;4.30;2.20;;;12.30;99.90;;;;;;4995025;28;20413;-77
2022/09/27 02:12:51;;;;;;;2.40;1.77;;;12.30;99.90;;;;;;4992606;28;20518;-77
2022/09/27 02:15:17;;;;;;;6.03;1.73;;;12.20;99.90;;;;;;4995683;28;20425;-77
2022/09/27 02:18:09;;;;;;;4.13;1.73;;;12.10;99.90;;;;;;4991761;28;20433;-76
2022/09/27 02:20:43;;;;;;;4.83;2.47;;;12.20;99.90;;;;;;4999830;28;20474;-76
2022/09/27 02:23:09;;;;;;;4.47;1.87;;;12.20;99.90;;;;;;4995494;28;20460;-77
2022/09/27 02:26:06;;;;;;;4.33;2.37;;;12.10;99.90;;;;;;4996147;28;20423;-76
2022/09/27 02:28:54;;;;;;;5.43;2.37;;;12.20;99.90;;;;;;5000038;28;20879;-76
2022/09/27 02:31:20;;;;;;;4.80;2.60;;;12.20;99.90;;;;;;4998133;28;20546;-76
2022/09/27 02:33:48;;;;;;;2.67;2.10;;;12.10;99.90;;;;;;4993425;28;20544;-76
2022/09/27 02:36:14;;;;;;;5.20;2.00;;;12.10;99.90;;;;;;4995566;28;20499;-76
2022/09/27 02:38:42;;;;;;;3.30;2.43;;;12.10;99.90;;;;;;4994164;28;20425;-74
2022/09/27 02:41:19;;;;;;;3.93;2.20;;;12.10;99.90;;;;;;5000742;28;20495;-75
2022/09/27 02:43:53;;;;;;;3.43;2.30;;;12.00;99.90;;;;;;4994064;28;20524;-75
2022/09/27 02:46:40;;;;;;;5.70;3.03;;;12.00;99.90;;;;;;4993094;28;20443;-74
2022/09/27 02:49:43;;;;;;;3.50;2.43;;;12.00;99.90;;;;;;5000819;28;20427;-75
2022/09/27 02:52:31;;;;;;;3.37;2.37;;;12.10;99.90;;;;;;4989154;28;21536;-75
2022/09/27 02:55:26;;;;;;;2.90;2.30;;;12.00;99.90;;;;;;4992433;28;20504;-75
2022/09/27 02:58:10;;;;;;;4.97;2.23;;;12.10;99.90;;;;;;4967475;28;20543;-76
2022/09/27 03:00:56;;;;;;;6.40;2.90;;;12.10;99.90;;;;;;5001680;28;21760;-76
2022/09/27 03:04:15;;;;;;;3.00;2.63;;;12.20;99.90;;;;;;4996420;28;20471;-76
2022/09/27 03:06:45;;;;;;;10.30;2.67;;;12.20;99.90;;;;;;4932505;29;20428;-74
2022/09/27 03:09:20;;;;;;;7.03;3.37;;;12.20;99.90;;;;;;4987064;28;20800;-76
2022/09/27 03:11:45;;;;;;;9.83;2.57;;;12.30;99.90;;;;;;4997361;28;20476;-75
2022/09/27 03:14:11;;;;;;;4.60;2.30;;;12.20;99.90;;;;;;4999094;28;20417;-76
2022/09/27 03:16:37;;;;;;;7.70;3.00;;;12.20;99.90;;;;;;4998324;28;20629;-74
2022/09/27 03:19:02;;;;;;;6.70;3.00;;;12.20;99.90;;;;;;4994076;28;20216;-74
2022/09/27 03:21:28;;;;;;;9.50;3.00;;;12.20;99.90;;;;;;4992594;28;20194;-76
2022/09/27 03:23:54;;;;;;;5.63;2.53;;;12.20;99.90;;;;;;5003195;28;20200;-72
2022/09/27 03:26:20;;;;;;;4.63;3.20;;;12.10;99.90;;;;;;5001381;28;20176;-74
2022/09/27 03:28:45;;;;;;;7.27;3.80;;;12.10;99.90;;;;;;4993677;28;20605;-76
2022/09/27 03:31:11;;;;;;;5.90;2.60;;;12.10;99.90;;;;;;5003342;28;20539;-76
2022/09/27 03:33:37;;;;;;;11.50;4.07;;;12.10;99.90;;;;;;4995561;28;20193;-74
2022/09/27 03:36:03;;;;;;;8.17;2.90;;;12.10;99.90;;;;;;4996945;28;20489;-76
2022/09/27 03:38:28;;;;;;;9.60;3.60;;;12.10;99.90;;;;;;4997702;28;20174;-75
2022/09/27 03:40:54;;;;;;;12.37;3.20;;;12.10;99.90;;;;;;4997323;28;20182;-76
2022/09/27 03:43:19;;;;;;;6.30;3.40;;;12.10;99.90;;;;;;5001868;28;20201;-76
2022/09/27 03:45:46;;;;;;;6.67;3.10;;;12.20;99.90;;;;;;4995380;28;20178;-75
2022/09/27 03:48:11;;;;;;;8.97;2.93;;;12.10;99.90;;;;;;4998468;28;20180;-76
2022/09/27 03:50:37;;;;;;;7.10;3.20;;;12.10;99.90;;;;;;5001838;28;20420;-74
2022/09/27 03:53:03;;;;;;;5.90;3.03;;;12.00;99.90;;;;;;5003446;28;20292;-74
2022/09/27 03:55:28;;;;;;;5.57;3.23;;;12.00;99.90;;;;;;4995134;28;20181;-74
2022/09/27 03:57:54;;;;;;;8.10;3.30;;;12.00;99.90;;;;;;5003815;28;20561;-75
2022/09/27 04:00:19;;;;;;;7.60;2.97;;;12.00;99.90;;;;;;4997994;28;20174;-75
2022/09/27 04:02:45;;;;;;;11.90;3.30;;;12.00;99.90;;;;;;4994856;28;20243;-75
2022/09/27 04:05:11;;;;;;;4.80;3.37;;;12.10;99.90;;;;;;5001901;28;20181;-74
2022/09/27 04:07:36;;;;;;;8.40;3.10;;;12.00;99.90;;;;;;5001280;28;20188;-77
2022/09/27 04:10:03;;;;;;;9.10;3.30;;;12.10;99.90;;;;;;5004065;28;20265;-76
2022/09/27 04:12:29;;;;;;;8.03;3.27;;;12.10;99.90;;;;;;4997648;28;20215;-76
2022/09/27 04:14:55;;;;;;;5.03;3.10;;;12.10;99.90;;;;;;4995798;28;20448;-75
2022/09/27 04:17:20;;;;;;;9.80;3.70;;;12.10;99.90;;;;;;4995251;28;20209;-76
2022/09/27 04:19:46;;;;;;;7.33;2.77;;;12.00;99.90;;;;;;4997247;28;20196;-76
2022/09/27 04:22:12;;;;;;;5.80;2.73;;;12.00;99.90;;;;;;4993963;28;20213;-74
2022/09/27 04:24:38;;;;;;;6.77;2.60;;;12.00;99.90;;;;;;4998899;28;20793;-75
2022/09/27 04:27:04;;;;;;;8.13;2.80;;;12.00;99.90;;;;;;5000086;28;20445;-74
2022/09/27 04:29:30;;;;;;;5.23;2.53;;;12.00;99.90;;;;;;4997306;28;20280;-74
2022/09/27 04:31:56;;;;;;;10.40;2.60;;;12.00;99.90;;;;;;4997899;28;20220;-75
2022/09/27 04:36:25;;;;;;;6.83;2.70;;;12.00;99.90;;;;;;4993461;28;20497;-75
2022/09/27 04:37:08;;;;;;;9.10;2.90;;;12.00;99.90;;;;;;4998860;28;20174;-75
2022/09/27 04:39:35;;;;;;;4.13;2.53;;;12.00;99.90;;;;;;4993443;28;20438;-75
2022/09/27 04:42:02;;;;;;;5.37;3.37;;;12.00;99.90;;;;;;4993146;28;20547;-77
2022/09/27 04:44:27;;;;;;;8.43;2.50;;;11.80;99.90;;;;;;4992540;28;20554;-76
2022/09/27 04:46:53;;;;;;;6.20;2.87;;;11.90;99.90;;;;;;4995177;28;20452;-75
2022/09/27 04:49:18;;;;;;;6.83;2.40;;;11.90;99.90;;;;;;4989499;28;20265;-75
2022/09/27 04:51:44;;;;;;;6.70;2.53;;;11.80;99.90;;;;;;5001485;28;20243;-75
2022/09/27 04:54:10;;;;;;;5.53;2.73;;;11.90;99.90;;;;;;5001996;28;20571;-76
2022/09/27 04:56:36;;;;;;;3.40;2.47;;;11.90;99.90;;;;;;4997737;28;20441;-76
2022/09/27 04:59:01;;;;;;;5.00;2.33;;;12.00;99.90;;;;;;4999176;28;20215;-76
2022/09/27 05:01:27;;;;;;;5.23;2.53;;;12.00;99.90;;;;;;5003276;28;20204;-77
2022/09/27 05:03:55;;;;;;;10.43;2.87;;;12.00;99.90;;;;;;4999983;28;20272;-77
2022/09/27 05:06:21;;;;;;;8.50;2.63;;;12.00;99.90;;;;;;4995883;28;20189;-77
2022/09/27 05:08:47;;;;;;;11.30;3.03;;;12.00;99.90;;;;;;4999969;28;20448;-74
2022/09/27 05:11:12;;;;;;;6.50;2.80;;;12.10;99.90;;;;;;4996728;28;21093;-73
2022/09/27 05:13:38;;;;;;;5.57;2.50;;;12.10;99.90;;;;;;4999464;28;20196;-72
2022/09/27 05:16:04;;;;;;;7.90;2.60;;;12.10;99.90;;;;;;4990544;28;20627;-75
2022/09/27 05:18:30;;;;;;;7.67;2.90;;;12.10;99.90;;;;;;4991545;28;20243;-75
2022/09/27 05:20:57;;;;;;;5.40;2.80;;;12.10;99.90;;;;;;4988348;28;20441;-74
2022/09/27 05:23:23;;;;;;;4.87;2.63;;;12.10;99.90;;;;;;4998040;28;20621;-75
2022/09/27 05:25:49;;;;;;;5.77;2.70;;;12.10;99.90;;;;;;4993479;28;20433;-75
2022/09/27 05:28:14;;;;;;;4.67;2.73;;;12.10;99.90;;;;;;4995323;28;20425;-74
2022/09/27 05:30:40;;;;;;;4.20;2.73;;;12.10;99.90;;;;;;4995310;28;20178;-73
2022/09/27 05:33:06;;;;;;;5.50;2.87;;;12.10;99.90;;;;;;4993638;28;20221;-75
2022/09/27 05:35:32;;;;;;;6.70;2.60;;;12.00;99.90;;;;;;4994353;28;20865;-76
2022/09/27 05:37:59;;;;;;;5.33;2.90;;;12.10;99.90;;;;;;4999801;28;20646;-75
2022/09/27 05:40:25;;;;;;;4.97;2.37;;;12.10;99.90;;;;;;4995421;28;20966;-76
2022/09/27 05:42:52;;;;;;;4.03;2.37;;;12.10;99.90;;;;;;4997626;28;20436;-75
2022/09/27 05:45:19;;;;;;;3.60;2.50;;;12.10;99.90;;;;;;4992906;28;20511;-74
2022/09/27 05:47:54;;;;;;;4.10;2.10;;;12.00;99.90;;;;;;4995201;28;20465;-73
2022/09/27 05:50:20;;;;;;;3.30;2.13;;;12.00;99.90;;;;;;4995894;28;20447;-73
2022/09/27 05:52:45;;;;;;;4.37;2.60;;;12.00;99.90;;;;;;4991726;28;20578;-71
2022/09/27 05:55:11;;;;;;;5.97;2.27;;;12.00;99.90;;;;;;4994465;28;20188;-72
2022/09/27 05:57:37;;;;;;;3.90;2.87;;;12.00;99.90;;;;;;4992003;28;20185;-73
2022/09/27 06:00:03;;;;;;;6.53;2.20;;;12.00;99.90;;;;;;4994413;28;20181;-72
2022/09/27 06:02:28;;;;;;;3.80;2.10;;;11.90;99.90;;;;;;4995188;28;20224;-74
2022/09/27 06:04:54;;;;;;;4.37;2.57;;;11.90;99.90;;;;;;4993104;28;20436;-74
2022/09/27 06:07:19;;;;;;;3.87;2.10;;;11.90;99.90;;;;;;4989927;28;20221;-74
2022/09/27 06:09:45;;;;;;;2.60;2.00;;;12.00;99.90;;;;;;4997597;28;20196;-75
2022/09/27 06:12:11;;;;;;;3.97;1.87;;;11.90;99.90;;;;;;4995767;28;20216;-75
2022/09/27 06:14:37;;;;;;;5.00;2.07;;;11.80;99.90;;;;;;4987286;28;20186;-75
2022/09/27 06:17:03;;;;;;;2.83;1.70;;;11.80;99.90;;;;;;4990776;28;20453;-76
2022/09/27 06:19:29;;;;;;;2.60;1.87;;;11.80;99.90;;;;;;4993766;28;20953;-76
2022/09/27 06:21:55;;;;;;;5.43;2.27;;;11.70;99.90;;;;;;4989500;28;20466;-73
2022/09/27 06:24:20;;;;;;;3.03;1.67;;;11.70;99.90;;;;;;4987828;28;21357;-73
2022/09/27 06:26:46;;;;;;;2.13;1.30;;;11.60;99.90;;;;;;4989010;28;20189;-74
2022/09/27 06:29:11;;;;;;;2.20;1.50;;;11.60;99.90;;;;;;4987328;28;20197;-74
2022/09/27 06:31:37;;;;;;;2.70;1.60;;;11.70;99.90;;;;;;4986488;28;20221;-72
2022/09/27 06:34:03;;;;;;;2.07;1.40;;;11.60;99.90;;;;;;4987593;28;20680;-74
2022/09/27 06:36:28;;;;;;;2.57;1.60;;;11.60;99.90;;;;;;4991882;28;20236;-71
2022/09/27 06:38:54;;;;;;;4.27;1.53;;;11.60;99.90;;;;;;4994273;28;20273;-71
2022/09/27 06:41:19;;;;;;;2.70;1.50;;;11.60;99.90;;;;;;4995446;28;20734;-73
2022/09/27 06:43:48;;;;;;;2.50;1.63;;;11.60;99.90;;;;;;5002975;28;20730;-73
2022/09/27 06:46:14;;;;;;;4.90;1.43;;;11.70;99.90;;;;;;4998705;28;20205;-71
2022/09/27 06:48:41;;;;;;;2.80;1.87;;;11.70;99.90;;;;;;5005852;28;20464;-71
2022/09/27 06:51:07;;;;;;;3.00;2.00;;;11.70;99.90;;;;;;4998298;28;21017;-73
2022/09/27 06:53:32;;;;;;;4.50;1.67;;;11.70;99.90;;;;;;4999878;28;20432;-74
2022/09/27 06:55:59;;;;;;;5.00;1.83;;;11.80;99.90;;;;;;4998434;28;20197;-74
2022/09/27 07:01:10;;;;;;;5.40;1.50;;;11.80;99.90;;;;;;4998747;28;20538;-74
2022/09/27 07:03:40;;;;;;;3.50;1.70;;;11.70;99.90;;;;;;5001142;28;21031;-72
2022/09/27 07:06:11;;;;;;;2.73;1.60;;;11.70;99.90;;;;;;4997296;28;20177;-74
2022/09/27 07:08:37;;;;;;;3.50;1.87;;;11.70;99.90;;;;;;5001896;28;20467;-75
2022/09/27 07:11:06;;;;;;;2.10;1.40;;;11.60;99.90;;;;;;5002623;28;20493;-74
2022/09/27 07:13:35;;;;;;;4.60;1.70;;;11.60;99.90;;;;;;5004473;28;20213;-75
2022/09/27 07:16:02;;;;;;;1.90;1.50;;;11.70;99.90;;;;;;5000622;28;20437;-76
2022/09/27 07:18:27;;;;;;;5.97;1.97;;;11.70;99.90;;;;;;5001812;28;20496;-75
2022/09/27 07:20:53;;;;;;;3.70;1.50;;;11.80;99.90;;;;;;4997124;28;20436;-75
2022/09/27 07:23:19;;;;;;;2.37;2.10;;;11.90;99.90;;;;;;5004525;28;20209;-76
2022/09/27 07:25:46;;;;;;;4.40;2.30;;;11.90;99.90;;;;;;5006966;28;20188;-72
2022/09/27 07:28:15;;;;;;;3.70;1.60;;;12.00;99.90;;;;;;5000165;28;20475;-74
2022/09/27 07:30:41;;;;;;;3.03;1.53;;;12.00;99.90;;;;;;5002797;28;20514;-76
2022/09/27 07:33:08;;;;;;;4.77;1.90;;;12.00;99.90;;;;;;5001970;28;20460;-75
2022/09/27 07:35:38;;;;;;;3.80;1.67;;;12.00;99.90;;;;;;5004909;28;20424;-75
2022/09/27 07:38:07;;;;;;;2.90;1.87;;;12.10;99.90;;;;;;4999270;28;20494;-75
2022/09/27 07:40:34;;;;;;;3.20;1.80;;;12.10;99.90;;;;;;4999566;28;20444;-75
2022/09/27 07:43:00;;;;;;;3.17;1.70;;;12.10;99.90;;;;;;4997905;28;20566;-75
2022/09/27 07:45:26;;;;;;;2.90;1.73;;;12.10;99.90;;;;;;5002748;28;20514;-76
2022/09/27 07:47:51;;;;;;;3.00;1.73;;;12.10;99.90;;;;;;4997479;28;20180;-76
2022/09/27 07:50:17;;;;;;;4.53;2.10;;;12.20;99.90;;;;;;4998714;28;20182;-74
2022/09/27 07:52:45;;;;;;;2.60;1.67;;;12.30;99.90;;;;;;4994594;28;20468;-74
2022/09/27 07:55:12;;;;;;;3.80;2.07;;;12.30;99.90;;;;;;5002588;28;20292;-75
2022/09/27 07:57:39;;;;;;;5.70;1.60;;;12.30;99.90;;;;;;4999846;28;20468;-74
2022/09/27 08:00:06;;;;;;;3.73;1.67;;;12.30;99.90;;;;;;4992878;28;20437;-74
2022/09/27 08:02:32;;;;;;;4.60;2.10;;;12.30;99.90;;;;;;4989229;28;20472;-71
2022/09/27 08:04:58;;;;;;;4.97;2.10;;;12.30;99.90;;;;;;4995581;28;20506;-71
2022/09/27 08:07:25;;;;;;;3.90;2.00;;;12.40;99.90;;;;;;4996282;28;20893;-74
2022/09/27 08:09:51;;;;;;;3.90;1.97;;;12.40;99.90;;;;;;4996324;28;20452;-75
2022/09/27 08:12:17;;;;;;;4.63;1.93;;;12.50;99.90;;;;;;4990635;28;21066;-76
2022/09/27 08:14:42;;;;;;;2.50;1.90;;;12.40;99.90;;;;;;4993132;28;20429;-75
2022/09/27 08:17:12;;;;;;;2.93;1.90;;;12.40;99.90;;;;;;4998785;28;20434;-74
2022/09/27 08:19:39;;;;;;;5.77;2.23;;;12.40;99.90;;;;;;4995396;28;20185;-75
2022/09/27 08:22:05;;;;;;;6.83;2.23;;;12.40;99.90;;;;;;4998111;28;20455;-74
2022/09/27 08:24:31;;;;;;;3.80;2.10;;;12.50;99.90;;;;;;4998866;28;20420;-73
2022/09/27 08:26:58;;;;;;;5.40;2.20;;;12.60;99.90;;;;;;4998651;28;20867;-75
2022/09/27 08:29:24;;;;;;;6.80;2.53;;;12.70;99.90;;;;;;4999489;28;20429;-74
2022/09/27 08:31:51;;;;;;;6.43;2.43;;;12.70;99.90;;;;;;5001139;28;20521;-73
2022/09/27 08:34:16;;;;;;;8.33;2.30;;;12.60;99.90;;;;;;5001569;28;20180;-74
2022/09/27 08:36:42;;;;;;;2.40;2.00;;;12.60;99.90;;;;;;5003029;28;20490;-73
2022/09/27 08:39:08;;;;;;;3.03;2.57;;;12.70;99.90;;;;;;4997023;28;20862;-74
2022/09/27 08:41:38;;;;;;;4.10;2.33;;;12.90;99.90;;;;;;4998587;28;20431;-73
2022/09/27 08:44:22;;;;;;;2.80;2.10;;;12.90;99.90;;;;;;5000391;28;20271;-74
2022/09/27 08:47:23;;;;;;;2.33;1.67;;;13.00;99.90;;;;;;4992019;28;20432;-76
2022/09/27 08:49:49;;;;;;;3.00;2.03;;;13.20;99.90;;;;;;4996927;28;20985;-74
2022/09/27 08:52:36;;;;;;;2.80;2.10;;;13.20;99.90;;;;;;5000883;28;20472;-74
2022/09/27 08:55:09;;;;;;;5.77;2.40;;;13.30;99.90;;;;;;4993223;28;20209;-73
2022/09/27 08:57:36;;;;;;;4.13;2.10;;;13.40;99.90;;;;;;4991608;28;20445;-73
2022/09/27 09:00:10;;;;;;;4.03;2.40;;;13.30;99.90;;;;;;4991237;28;20524;-73
2022/09/27 09:02:36;;;;;;;4.77;2.60;;;13.30;99.90;;;;;;4991874;28;20509;-73
2022/09/27 09:05:26;;;;;;;6.50;3.57;;;13.40;99.90;;;;;;4993910;28;20643;-72
2022/09/27 09:07:52;;;;;;;7.83;3.50;;;13.20;99.90;;;;;;4993982;28;20504;-71
2022/09/27 09:13:37;;;;;;;9.80;3.27;;;13.20;99.90;;;;;;4997798;28;20224;-73
2022/09/27 09:16:03;;;;;;;4.13;2.80;;;13.30;99.90;;;;;;4986814;28;20428;-73
2022/09/27 09:18:53;;;;;;;6.87;3.80;;;13.20;99.90;;;;;;4990657;28;20926;-74
2022/09/27 09:21:38;;;;;;;5.87;3.10;;;13.30;99.90;;;;;;4992901;28;20450;-72
2022/09/27 09:24:33;;;;;;;4.33;2.60;;;13.20;99.90;;;;;;4989679;28;20832;-73
2022/09/27 09:27:17;;;;;;;4.80;3.40;;;13.30;99.90;;;;;;4993824;28;20439;-73
2022/09/27 09:29:49;;;;;;;3.37;2.60;;;13.30;99.90;;;;;;4991951;28;20444;-73
2022/09/27 09:32:26;;;;;;;4.00;3.30;;;13.40;99.90;;;;;;4996591;28;20469;-74
2022/09/27 09:35:02;;;;;;;5.60;3.03;;;13.40;99.90;;;;;;4993248;28;20972;-74
2022/09/27 09:37:38;;;;;;;5.53;2.47;;;13.40;99.90;;;;;;4993399;28;20525;-74
2022/09/27 09:40:16;;;;;;;3.77;2.30;;;13.40;99.90;;;;;;4986385;28;20436;-74
2022/09/27 09:42:51;;;;;;;3.53;2.23;;;13.40;99.90;;;;;;4991857;28;20884;-77
2022/09/27 09:45:23;;;;;;;5.00;2.13;;;13.30;99.90;;;;;;4992679;28;20475;-74
2022/09/27 09:48:01;;;;;;;4.53;3.10;;;13.30;99.90;;;;;;4990285;28;20889;-72
2022/09/27 09:50:42;;;;;;;3.40;2.40;;;13.20;99.90;;;;;;4992701;28;20467;-72
2022/09/27 09:53:22;;;;;;;3.50;2.20;;;13.10;99.90;;;;;;4987941;28;20471;-73
2022/09/27 09:55:57;;;;;;;4.70;2.43;;;13.00;99.90;;;;;;4987617;28;20433;-75
2022/09/27 09:58:35;;;;;;;5.27;2.43;;;13.00;99.90;;;;;;4995919;28;20825;-74
2022/09/27 10:01:13;;;;;;;3.30;2.77;;;12.90;99.90;;;;;;4993379;28;20448;-74
2022/09/27 10:03:39;;;;;;;3.03;2.47;;;12.90;99.90;;;;;;4988130;28;20491;-74
2022/09/27 10:06:05;;;;;;;4.53;2.77;;;12.70;99.90;;;;;;4990885;28;20459;-75
2022/09/27 10:08:31;;;;;;;4.40;3.43;;;12.60;99.90;;;;;;4995631;28;20201;-72
2022/09/27 10:10:57;;;;;;;6.43;2.87;;;12.80;99.90;;;;;;4998272;28;20673;-75
2022/09/27 10:13:23;;;;;;;5.37;2.83;;;12.90;99.90;;;;;;4992865;28;20479;-75
2022/09/27 10:16:11;;;;;;;12.97;3.70;;;13.00;99.90;;;;;;4994798;28;20181;-75
2022/09/27 10:18:40;;;;;;;3.40;2.80;;;12.90;99.90;;;;;;4991297;28;20263;-77
2022/09/27 10:21:21;;;;;;;6.63;2.70;;;13.00;99.90;;;;;;4991028;28;20510;-76
2022/09/27 10:24:08;;;;;;;7.50;2.77;;;12.80;99.90;;;;;;4994771;28;20544;-74
2022/09/27 10:26:35;;;;;;;4.50;2.40;;;12.80;99.90;;;;;;4994845;28;20436;-74
2022/09/27 10:29:13;;;;;;;9.53;4.77;;;12.70;99.90;;;;;;4989540;28;20414;-75
2022/09/27 10:31:44;;;;;;;3.77;3.07;;;12.50;99.90;;;;;;4999896;28;21621;-74
2022/09/27 10:34:16;;;;;;;6.10;3.40;;;12.40;99.90;;;;;;4986974;28;20443;-74
2022/09/27 10:36:42;;;;;;;4.53;3.00;;;12.40;99.90;;;;;;4996268;28;20856;-74
2022/09/27 10:39:22;;;;;;;5.17;2.57;;;12.10;99.90;;;;;;4990125;28;20440;-73
2022/09/27 10:41:48;;;;;;;7.33;2.30;;;11.80;99.90;;;;;;4994401;28;20227;-75
2022/09/27 10:44:43;;;;;;;5.17;2.50;;;11.50;99.90;;;;;;4988372;28;20472;-78
2022/09/27 10:47:12;;;;;;;1.93;1.10;;;11.30;99.90;;;;;;4994007;28;20204;-74
2022/09/27 10:49:40;;;;;;;2.97;1.40;;;11.40;99.90;;;;;;4989851;28;20424;-76
2022/09/27 10:52:21;;;;;;;3.60;1.67;;;11.40;99.90;;;;;;4993653;28;20471;-73
2022/09/27 10:55:19;;;;;;;3.30;1.47;;;11.40;99.90;;;;;;4992924;28;20435;-75
2022/09/27 10:57:51;;;;;;;2.63;1.80;;;11.40;99.90;;;;;;4994111;28;21211;-76
2022/09/27 11:00:31;;;;;;;3.10;1.30;;;11.50;99.90;;;;;;4996053;28;20424;-76
2022/09/27 11:03:04;;;;;;;1.70;1.30;;;11.40;99.90;;;;;;4993576;28;20627;-74
2022/09/27 11:05:35;;;;;;;2.67;1.30;;;11.30;99.90;;;;;;4992077;28;21150;-72
2022/09/27 11:08:17;;;;;;;1.97;1.10;;;11.30;99.90;;;;;;4980045;28;20962;-73
2022/09/27 11:10:44;;;;;;;3.40;1.40;;;11.30;99.90;;;;;;4978941;28;21049;-74
2022/09/27 11:13:14;;;;;;;3.50;1.37;;;11.20;99.90;;;;;;4990685;28;20480;-73
2022/09/27 11:16:08;;;;;;;3.13;2.20;;;11.20;99.90;;;;;;4987773;28;20433;-73
2022/09/27 11:19:09;;;;;;;2.03;1.10;;;11.30;99.90;;;;;;4987590;28;20453;-74
2022/09/27 11:22:00;;;;;;;2.60;1.30;;;11.30;99.90;;;;;;4938350;28;20461;-72
2022/09/27 11:24:56;;;;;;;4.80;1.40;;;11.30;99.90;;;;;;4989958;28;20441;-72
2022/09/27 11:27:55;;;;;;;2.47;1.33;;;11.30;99.90;;;;;;4998333;28;20439;-74
2022/09/27 11:30:22;;;;;;;4.23;2.07;;;11.30;99.90;;;;;;4996281;28;20435;-73
2022/09/27 11:33:07;;;;;;;3.60;1.20;;;11.20;99.90;;;;;;4996961;28;20471;-75
2022/09/27 11:35:55;;;;;;;5.50;1.63;;;11.20;99.90;;;;;;4993867;28;20428;-71
2022/09/27 11:38:22;;;;;;;2.67;1.70;;;11.30;99.90;;;;;;4996110;28;20452;-72
2022/09/27 11:40:59;;;;;;;3.27;1.87;;;11.20;99.90;;;;;;5000144;28;20430;-70
2022/09/27 11:43:49;;;;;;;2.00;1.40;;;11.20;99.90;;;;;;4998228;28;20447;-71
2022/09/27 11:46:22;;;;;;;3.50;1.50;;;11.20;99.90;;;;;;4998606;28;20814;-72
2022/09/27 11:49:09;;;;;;;2.83;1.70;;;11.20;99.90;;;;;;4990511;28;20803;-71
2022/09/27 11:51:59;;;;;;;2.67;1.50;;;11.20;99.90;;;;;;4990712;28;21149;-69
2022/09/27 11:54:44;;;;;;;2.27;1.87;;;11.30;99.90;;;;;;4991699;28;20890;-70
2022/09/27 11:57:30;;;;;;;3.17;1.67;;;11.30;99.90;;;;;;4995392;28;20520;-70
2022/09/27 12:00:14;;;;;;;3.10;1.83;;;11.40;99.90;;;;;;4994696;28;20435;-70
2022/09/27 12:02:52;;;;;;;4.40;2.33;;;11.70;99.90;;;;;;4992062;28;20486;-71
2022/09/27 12:05:49;;;;;;;2.10;1.50;;;12.00;99.90;;;;;;4997723;28;21338;-71
2022/09/27 12:08:42;;;;;;;3.83;1.70;;;12.50;99.90;;;;;;4992258;28;20441;-70
2022/09/27 12:11:29;;;;;;;3.37;2.30;;;12.90;99.90;;;;;;4993093;28;20440;-72
2022/09/27 12:14:17;;;;;;;3.57;1.60;;;12.90;99.90;;;;;;4992485;28;21054;-73
2022/09/27 12:16:44;;;;;;;4.90;1.87;;;12.70;99.90;;;;;;4997559;28;20436;-72
2022/09/27 12:19:27;;;;;;;2.30;1.70;;;12.60;99.90;;;;;;4990890;28;20448;-72
2022/09/27 12:21:57;;;;;;;3.70;1.80;;;12.40;99.90;;;;;;4990202;28;20482;-71
2022/09/27 12:24:24;;;;;;;3.40;1.80;;;12.50;99.90;;;;;;4990936;28;20455;-72
2022/09/27 12:26:54;;;;;;;2.20;1.50;;;12.50;99.90;;;;;;4998588;28;20525;-72
2022/09/27 12:29:21;;;;;;;1.97;1.60;;;12.80;99.90;;;;;;4992772;28;20436;-71
2022/09/27 12:32:10;;;;;;;2.30;1.80;;;13.40;99.90;;;;;;4994617;28;20488;-72
2022/09/27 12:34:41;;;;;;;3.20;1.63;;;13.60;99.90;;;;;;4995524;28;20436;-72
2022/09/27 12:37:19;;;;;;;3.43;1.60;;;13.80;99.90;;;;;;4990718;28;20432;-71
2022/09/27 12:39:59;;;;;;;2.87;1.67;;;13.80;99.90;;;;;;4990481;28;20509;-72
2022/09/27 12:42:34;;;;;;;3.43;1.70;;;13.70;99.90;;;;;;4994937;28;20554;-74
2022/09/27 12:45:00;;;;;;;4.00;1.90;;;13.80;99.90;;;;;;4992100;28;20437;-72
2022/09/27 12:47:50;;;;;;;2.80;1.63;;;13.90;99.90;;;;;;4990222;28;20448;-73
2022/09/27 12:50:58;;;;;;;2.43;1.77;;;13.80;99.90;;;;;;4992746;28;20194;-71
2022/09/27 12:53:40;;;;;;;2.70;2.27;;;13.80;99.90;;;;;;4987777;28;20550;-72
2022/09/27 12:56:30;;;;;;;4.33;2.40;;;14.00;99.90;;;;;;4996196;28;20790;-71
2022/09/27 12:59:33;;;;;;;4.33;1.50;;;14.00;99.90;;;;;;4992568;28;20463;-72
2022/09/27 13:02:25;;;;;;;3.80;2.10;;;13.90;99.90;;;;;;4994108;28;21029;-71
2022/09/27 13:05:09;;;;;;;2.90;1.90;;;13.70;99.90;;;;;;4996361;28;21039;-71
2022/09/27 13:08:08;;;;;;;4.13;1.97;;;13.70;99.90;;;;;;4996186;28;20436;-72
2022/09/27 13:10:37;;;;;;;2.20;1.70;;;13.80;99.90;;;;;;4996031;28;20558;-72
2022/09/27 13:13:05;;;;;;;2.00;1.70;;;13.90;99.90;;;;;;4995464;28;21069;-71
2022/09/27 13:15:31;;;;;;;3.10;2.00;;;13.90;99.90;;;;;;4990230;28;20890;-73
2022/09/27 13:18:00;;;;;;;2.80;1.50;;;13.90;99.90;;;;;;4994732;28;20494;-72